CheckWX is a tool to help pilots better visualize weather data.  It is not intended as a substitute for an official pre-flight weather briefing.

10:07:30 UTC

MHTG TAF
Toncontín International Airport
Tegucigalpa, Honduras
TAF MHTG 260425Z 2606/2706 36004KT 9999 BKN026 TX29/2619Z TN17/2612Z BECMG 2610/2612 8000 VCSH FEW008 BKN026 BECMG 2614/1616 07008KT 9999 NSW SCT030 PROB30 2623/2701 8000 VCSH SCT030TCU SCT080 BECMG 2702/2704 36005KT 9999 NSW

Jun-26@
06:00 UTC

Jun-26 @ 06:00 UTC

Jun-26@
10:00 UTC

Jun-26 @ 10:00 UTC

TAF MHTG 260425Z 2606/2706 36004KT 9999 BKN026 TX29/2619Z TN17/2612Z

Expired

Wind
  • 360° at 4 KTS
Cloud Levels
  • Broken at 2,600' AGL

Jun-26@
10:00 UTC

Jun-26 @ 10:00 UTC

Jun-26@
14:00 UTC

Jun-26 @ 14:00 UTC

BECMG 2610/2612 8000 VCSH FEW008 BKN026

Becoming

Becoming Conditions expected by Wed, Jun 26, 2019 @ 12:00 UTC

Wind
  • 360° at 4 KTS
Cloud Levels
  • Few at 800' AGL
  • Broken at 2,600' AGL

Jun-26@
14:00 UTC

Jun-26 @ 14:00 UTC

Jun-27@
02:00 UTC

Jun-27 @ 02:00 UTC

BECMG 2614/1616 07008KT 9999 NSW SCT030

Becoming

Becoming Conditions expected by Sun, Jun 16, 2019 @ 16:00 UTC

Wind
  • 070° at 8 KTS
Conditions
No significant weather
Cloud Levels
  • Scattered at 3,000' AGL

Jun-26@
23:00 UTC

Jun-26 @ 23:00 UTC

Jun-27@
01:00 UTC

Jun-27 @ 01:00 UTC

PROB30 2623/2701 8000 VCSH SCT030TCU SCT080

Probable - 30% Likelihood

Probable - 30% Likelihood during this time.

Cloud Levels
  • Scattered at 3,000' AGL
  • Scattered at 8,000' AGL

Jun-27@
02:00 UTC

Jun-27 @ 02:00 UTC

Jun-27@
06:00 UTC

Jun-27 @ 06:00 UTC

BECMG 2702/2704 36005KT 9999 NSW

Becoming

Becoming Conditions expected by Thu, Jun 27, 2019 @ 04:00 UTC

Wind
  • 360° at 5 KTS
Conditions
No significant weather
Cloud Levels
  • Scattered at 3,000' AGL